Time;durP1;ratioP1;P1;durP2;ratioP2;P2;SDS_P1;SDS_P2;PMS_P1;PMS_P2;Temp;Humidity;BMP_temperature;BMP_pressure;BME280_temperature;BME280_humidity;BME280_pressure;Samples;Min_cycle;Max_cycle;Signal;HPM_P1;HPM_P2
2020/12/06 00:00:47;;;;;;;23.53;14.27;;;;;;;;;;5071364;28;20028;-77
2020/12/06 00:03:12;;;;;;;28.60;14.67;;;;;;;;;;5072378;28;20044;-77
2020/12/06 00:05:37;;;;;;;28.13;15.03;;;;;;;;;;5072708;28;20030;-77
2020/12/06 00:08:02;;;;;;;26.63;15.07;;;;;;;;;;5072640;28;20058;-77
2020/12/06 00:10:28;;;;;;;28.17;15.53;;;;;;;;;;5072683;28;20012;-77
2020/12/06 00:12:53;;;;;;;27.03;14.73;;;;;;;;;;5071313;28;20021;-76
2020/12/06 00:15:18;;;;;;;30.30;14.40;;;;;;;;;;5072120;28;20021;-77
2020/12/06 00:17:43;;;;;;;29.13;14.20;;;;;;;;;;5076726;28;20475;-77
2020/12/06 00:20:10;;;;;;;26.17;13.80;;;;;;;;;;5075191;28;20032;-77
2020/12/06 00:22:35;;;;;;;33.27;15.50;;;;;;;;;;5076638;28;20024;-76
2020/12/06 00:25:00;;;;;;;31.83;14.90;;;;;;;;;;5076534;28;20016;-77
2020/12/06 00:27:25;;;;;;;28.57;15.37;;;;;;;;;;5069619;28;20017;-76
2020/12/06 00:29:50;;;;;;;31.07;16.03;;;;;;;;;;5059252;28;20104;-77
2020/12/06 00:32:16;;;;;;;28.30;14.70;;;;;;;;;;5070757;28;20111;-77
2020/12/06 00:34:41;;;;;;;29.27;13.97;;;;;;;;;;5076383;28;20029;-77
2020/12/06 00:37:06;;;;;;;27.90;13.53;;;;;;;;;;5075701;28;20017;-77
2020/12/06 00:39:31;;;;;;;23.23;12.73;;;;;;;;;;5074714;28;20020;-76
2020/12/06 00:41:56;;;;;;;21.13;12.40;;;;;;;;;;5075192;28;20526;-77
2020/12/06 00:44:22;;;;;;;23.30;12.33;;;;;;;;;;5074718;28;20070;-76
2020/12/06 00:46:47;;;;;;;24.10;12.17;;;;;;;;;;5074817;28;20044;-77
2020/12/06 00:49:12;;;;;;;27.13;13.73;;;;;;;;;;5075717;28;20103;-77
2020/12/06 00:51:37;;;;;;;27.50;13.63;;;;;;;;;;5075954;28;20017;-76
2020/12/06 00:54:02;;;;;;;25.97;13.33;;;;;;;;;;5076081;28;20020;-77
2020/12/06 00:56:28;;;;;;;27.90;14.23;;;;;;;;;;5074041;28;20130;-77
2020/12/06 00:58:53;;;;;;;29.83;15.10;;;;;;;;;;5075734;28;20025;-77
2020/12/06 01:01:18;;;;;;;42.80;17.57;;;;;;;;;;5074528;28;20456;-76
2020/12/06 01:03:44;;;;;;;46.27;17.97;;;;;;;;;;5075387;28;20019;-76
2020/12/06 01:06:13;;;;;;;37.77;15.73;;;;;;;;;;5074311;28;20103;-77
2020/12/06 01:08:38;;;;;;;41.47;15.77;;;;;;;;;;5075524;28;20585;-77
2020/12/06 01:11:04;;;;;;;26.83;14.70;;;;;;;;;;5073379;28;20055;-77
2020/12/06 01:13:29;;;;;;;27.33;13.77;;;;;;;;;;5074163;28;20016;-77
2020/12/06 01:15:54;;;;;;;24.20;13.30;;;;;;;;;;5076070;28;20032;-77
2020/12/06 01:18:19;;;;;;;24.43;12.77;;;;;;;;;;5075584;28;20023;-76
2020/12/06 01:20:44;;;;;;;22.93;13.67;;;;;;;;;;5074174;28;20427;-77
2020/12/06 01:23:10;;;;;;;25.90;12.63;;;;;;;;;;5072610;28;20024;-77
2020/12/06 01:25:35;;;;;;;23.10;12.20;;;;;;;;;;5072148;28;20047;-77
2020/12/06 01:28:00;;;;;;;26.57;12.13;;;;;;;;;;5073690;28;20099;-77
2020/12/06 01:30:25;;;;;;;25.33;14.13;;;;;;;;;;5074028;28;20020;-77
2020/12/06 01:32:50;;;;;;;26.10;14.23;;;;;;;;;;5074025;28;20020;-77
2020/12/06 01:35:15;;;;;;;27.07;13.23;;;;;;;;;;5075065;28;20111;-76
2020/12/06 01:37:41;;;;;;;27.53;13.80;;;;;;;;;;5075069;28;20024;-77
2020/12/06 01:40:06;;;;;;;28.17;13.83;;;;;;;;;;5073780;28;20021;-77
2020/12/06 01:42:31;;;;;;;26.67;13.67;;;;;;;;;;5073483;28;20032;-77
2020/12/06 01:44:57;;;;;;;24.43;14.17;;;;;;;;;;5074844;28;20498;-76
2020/12/06 01:47:23;;;;;;;26.77;13.80;;;;;;;;;;5073406;28;20099;-77
2020/12/06 01:49:48;;;;;;;23.40;12.33;;;;;;;;;;5074694;28;20021;-77
2020/12/06 01:52:13;;;;;;;21.10;11.60;;;;;;;;;;5069189;28;20024;-77
2020/12/06 01:54:38;;;;;;;26.30;12.27;;;;;;;;;;5067832;28;20074;-77
2020/12/06 01:57:03;;;;;;;25.90;12.10;;;;;;;;;;5074864;28;20058;-77
2020/12/06 01:59:29;;;;;;;23.17;11.33;;;;;;;;;;5073207;28;20035;-77
2020/12/06 02:01:59;;;;;;;22.07;12.10;;;;;;;;;;5074478;28;20024;-77
2020/12/06 02:04:25;;;;;;;18.90;10.67;;;;;;;;;;5074417;28;20028;-77
2020/12/06 02:06:50;;;;;;;29.13;12.93;;;;;;;;;;5073929;28;20073;-77
2020/12/06 02:09:16;;;;;;;25.47;13.17;;;;;;;;;;5062932;28;20020;-77
2020/12/06 02:11:41;;;;;;;26.97;13.37;;;;;;;;;;5074592;28;20017;-77
2020/12/06 02:14:06;;;;;;;23.13;12.30;;;;;;;;;;5074544;28;20236;-77
2020/12/06 02:16:31;;;;;;;23.10;11.90;;;;;;;;;;5073044;28;20032;-77
2020/12/06 02:18:56;;;;;;;23.67;12.67;;;;;;;;;;5065079;28;20028;-77
2020/12/06 02:21:22;;;;;;;23.60;11.87;;;;;;;;;;5058391;28;20039;-77
2020/12/06 02:23:47;;;;;;;24.63;11.90;;;;;;;;;;5060811;28;20475;-76
2020/12/06 02:26:12;;;;;;;24.83;12.13;;;;;;;;;;5054140;28;20021;-77
2020/12/06 02:28:37;;;;;;;25.73;12.83;;;;;;;;;;5058855;28;20059;-77
2020/12/06 02:31:03;;;;;;;28.27;13.37;;;;;;;;;;5063046;28;20113;-77
2020/12/06 02:33:28;;;;;;;27.77;13.23;;;;;;;;;;5066629;28;20016;-77
2020/12/06 02:35:53;;;;;;;25.00;13.10;;;;;;;;;;5095870;28;20111;-77
2020/12/06 02:38:18;;;;;;;20.30;11.77;;;;;;;;;;5055668;28;20021;-77
2020/12/06 02:40:44;;;;;;;23.80;12.20;;;;;;;;;;5052699;28;20474;-77
2020/12/06 02:43:09;;;;;;;25.90;12.57;;;;;;;;;;5057979;28;20017;-77
2020/12/06 02:45:34;;;;;;;24.13;11.70;;;;;;;;;;5060434;28;20043;-77
2020/12/06 02:47:59;;;;;;;26.77;13.27;;;;;;;;;;5061127;28;20116;-77
2020/12/06 02:50:24;;;;;;;25.40;12.37;;;;;;;;;;5059590;28;20059;-77
2020/12/06 02:52:51;;;;;;;26.17;11.93;;;;;;;;;;5054672;28;20415;-77
2020/12/06 02:55:16;;;;;;;25.60;12.20;;;;;;;;;;5053863;28;20025;-77
2020/12/06 02:57:41;;;;;;;21.20;11.80;;;;;;;;;;5052327;28;20025;-77
2020/12/06 03:00:06;;;;;;;22.90;11.57;;;;;;;;;;5061633;28;20033;-77
2020/12/06 03:02:31;;;;;;;25.33;11.27;;;;;;;;;;5059904;28;20073;-77
2020/12/06 03:04:57;;;;;;;19.93;10.93;;;;;;;;;;5057296;28;20478;-76
2020/12/06 03:07:22;;;;;;;20.00;10.87;;;;;;;;;;5058075;28;20028;-77
2020/12/06 03:09:47;;;;;;;25.20;11.67;;;;;;;;;;5060010;28;20016;-77
2020/12/06 03:12:12;;;;;;;16.67;9.70;;;;;;;;;;5058825;28;20020;-77
2020/12/06 03:14:37;;;;;;;20.13;11.07;;;;;;;;;;5059877;28;20032;-77
2020/12/06 03:17:02;;;;;;;21.00;10.40;;;;;;;;;;5067077;28;20379;-77
2020/12/06 03:19:28;;;;;;;20.73;10.17;;;;;;;;;;5059221;28;20021;-77
2020/12/06 03:21:53;;;;;;;19.40;10.13;;;;;;;;;;5057208;28;20027;-77
2020/12/06 03:24:18;;;;;;;23.37;12.10;;;;;;;;;;5059527;28;20044;-77
2020/12/06 03:26:43;;;;;;;22.83;11.43;;;;;;;;;;5063464;28;20028;-77
2020/12/06 03:29:09;;;;;;;18.40;10.80;;;;;;;;;;5054415;28;20137;-77
2020/12/06 03:31:34;;;;;;;19.17;10.77;;;;;;;;;;5053437;28;20021;-77
2020/12/06 03:33:59;;;;;;;19.60;11.27;;;;;;;;;;5057491;28;20031;-77
2020/12/06 03:36:24;;;;;;;26.63;11.20;;;;;;;;;;5060002;28;20028;-77
2020/12/06 03:38:49;;;;;;;26.77;11.77;;;;;;;;;;5056239;28;20461;-77
2020/12/06 03:41:14;;;;;;;19.93;11.33;;;;;;;;;;5062222;28;20068;-77
2020/12/06 03:43:40;;;;;;;20.87;10.90;;;;;;;;;;5058946;28;20470;-77
2020/12/06 03:46:05;;;;;;;19.70;11.37;;;;;;;;;;5059416;28;20464;-77
2020/12/06 03:48:30;;;;;;;20.00;11.03;;;;;;;;;;5059579;28;20013;-77
2020/12/06 03:50:55;;;;;;;19.90;11.07;;;;;;;;;;5066467;28;20016;-77
2020/12/06 03:53:20;;;;;;;23.63;11.53;;;;;;;;;;5060517;28;20021;-77
2020/12/06 03:55:45;;;;;;;20.50;11.03;;;;;;;;;;5054774;28;20040;-77
2020/12/06 03:58:11;;;;;;;20.83;10.80;;;;;;;;;;5060046;28;20066;-77
2020/12/06 04:00:36;;;;;;;18.13;10.60;;;;;;;;;;5053385;28;20464;-77
2020/12/06 04:03:01;;;;;;;18.97;10.37;;;;;;;;;;5093724;28;20073;-77
2020/12/06 04:05:26;;;;;;;20.60;11.13;;;;;;;;;;5061306;28;20464;-77
2020/12/06 04:07:52;;;;;;;20.00;10.93;;;;;;;;;;5058969;28;20020;-77
2020/12/06 04:10:18;;;;;;;18.60;10.77;;;;;;;;;;5070249;28;20017;-77
2020/12/06 04:12:43;;;;;;;19.47;10.57;;;;;;;;;;5054922;28;20032;-77
2020/12/06 04:15:08;;;;;;;20.07;10.93;;;;;;;;;;5062114;28;20020;-78
2020/12/06 04:17:34;;;;;;;20.33;10.90;;;;;;;;;;5054143;28;20043;-77
2020/12/06 04:19:59;;;;;;;20.90;10.90;;;;;;;;;;5061914;28;20099;-77
2020/12/06 04:22:24;;;;;;;21.77;11.63;;;;;;;;;;5053426;28;20104;-77
2020/12/06 04:24:49;;;;;;;21.50;11.67;;;;;;;;;;5057557;28;20012;-77
2020/12/06 04:27:14;;;;;;;20.87;11.23;;;;;;;;;;5063581;28;20020;-77
2020/12/06 04:29:39;;;;;;;23.77;11.07;;;;;;;;;;5063900;28;20055;-77
2020/12/06 04:32:05;;;;;;;22.80;11.50;;;;;;;;;;5059574;28;20100;-77
2020/12/06 04:34:30;;;;;;;19.20;11.50;;;;;;;;;;5059897;28;20430;-77
2020/12/06 04:36:55;;;;;;;21.53;11.23;;;;;;;;;;5052423;28;20036;-77
2020/12/06 04:39:20;;;;;;;21.47;11.33;;;;;;;;;;5060562;28;20013;-77
2020/12/06 04:41:45;;;;;;;22.73;12.90;;;;;;;;;;5052717;28;20036;-77
2020/12/06 04:44:11;;;;;;;28.27;12.03;;;;;;;;;;5062160;28;20448;-77
2020/12/06 04:46:37;;;;;;;21.10;11.60;;;;;;;;;;5059251;28;20051;-77
2020/12/06 04:49:10;;;;;;;24.67;12.53;;;;;;;;;;5060465;28;20130;-77
2020/12/06 04:51:39;;;;;;;24.03;13.00;;;;;;;;;;5058921;28;20120;-77
2020/12/06 04:54:05;;;;;;;26.90;13.60;;;;;;;;;;5062522;28;20146;-77
2020/12/06 04:56:30;;;;;;;28.23;14.03;;;;;;;;;;5060779;28;20472;-77
2020/12/06 04:58:59;;;;;;;25.27;13.50;;;;;;;;;;5051690;28;20477;-77
2020/12/06 05:01:38;;;;;;;25.00;12.63;;;;;;;;;;5054486;28;20090;-78
2020/12/06 05:04:11;;;;;;;29.17;15.00;;;;;;;;;;5064175;28;20023;-77
2020/12/06 05:06:36;;;;;;;;;;;;;;;;;;5061528;28;20051;-78
2020/12/06 05:09:02;;;;;;;29.63;14.88;;;;;;;;;;5063447;28;19912;-77
2020/12/06 05:11:27;;;;;;;29.93;14.87;;;;;;;;;;5060682;28;20039;-77
2020/12/06 05:13:52;;;;;;;27.80;14.40;;;;;;;;;;5061492;28;20025;-77
2020/12/06 05:16:19;;;;;;;25.83;13.23;;;;;;;;;;5059568;28;20020;-77
2020/12/06 05:18:45;;;;;;;30.80;14.33;;;;;;;;;;5069423;28;20039;-77
2020/12/06 05:21:10;;;;;;;27.77;13.97;;;;;;;;;;5055750;28;20017;-77
2020/12/06 05:23:35;;;;;;;29.47;14.60;;;;;;;;;;5064647;28;20099;-78
2020/12/06 05:26:00;;;;;;;23.90;13.30;;;;;;;;;;5061017;28;20017;-77
2020/12/06 05:28:25;;;;;;;26.50;13.33;;;;;;;;;;5072152;28;20029;-77
2020/12/06 05:30:53;;;;;;;23.63;12.30;;;;;;;;;;5058007;28;20104;-77
2020/12/06 05:33:18;;;;;;;32.70;15.27;;;;;;;;;;5063183;28;20013;-77
2020/12/06 05:35:43;;;;;;;25.83;14.73;;;;;;;;;;5070001;28;20024;-77
2020/12/06 05:38:09;;;;;;;26.50;14.63;;;;;;;;;;5064618;28;20096;-77
2020/12/06 05:40:43;;;;;;;29.13;14.40;;;;;;;;;;5059175;28;20032;-77
2020/12/06 05:43:08;;;;;;;29.30;15.27;;;;;;;;;;5059882;28;20025;-78
2020/12/06 05:45:33;;;;;;;31.20;15.10;;;;;;;;;;5063951;28;20488;-78
2020/12/06 05:47:58;;;;;;;29.93;15.57;;;;;;;;;;5070296;28;20020;-78
2020/12/06 05:50:24;;;;;;;28.37;15.43;;;;;;;;;;5073044;28;20108;-77
2020/12/06 05:52:50;;;;;;;30.03;16.30;;;;;;;;;;5058279;28;20466;-77
2020/12/06 05:55:16;;;;;;;27.90;15.60;;;;;;;;;;5063098;28;20021;-77
2020/12/06 05:57:41;;;;;;;27.83;15.70;;;;;;;;;;5058159;28;20054;-77
2020/12/06 06:00:06;;;;;;;30.83;16.13;;;;;;;;;;5059001;28;20456;-77
2020/12/06 06:02:32;;;;;;;28.83;15.57;;;;;;;;;;5063062;28;20029;-77
2020/12/06 06:05:02;;;;;;;28.30;15.07;;;;;;;;;;5058700;28;20036;-77
2020/12/06 06:07:28;;;;;;;28.37;16.03;;;;;;;;;;5060769;28;20017;-77
2020/12/06 06:09:57;;;;;;;36.87;17.67;;;;;;;;;;5059029;28;20025;-78
2020/12/06 06:12:25;;;;;;;29.70;16.47;;;;;;;;;;5061435;28;20024;-78
2020/12/06 06:14:51;;;;;;;27.80;14.77;;;;;;;;;;5058572;28;20476;-77
2020/12/06 06:17:17;;;;;;;26.73;13.80;;;;;;;;;;5067624;28;20031;-77
2020/12/06 06:19:44;;;;;;;30.50;13.53;;;;;;;;;;5056313;28;20033;-76
2020/12/06 06:22:09;;;;;;;24.97;13.63;;;;;;;;;;5062771;28;20100;-77
2020/12/06 06:24:35;;;;;;;26.30;13.40;;;;;;;;;;5062016;28;20170;-77
2020/12/06 06:27:00;;;;;;;27.60;13.60;;;;;;;;;;5060020;28;20020;-77
2020/12/06 06:29:26;;;;;;;27.00;13.87;;;;;;;;;;5089710;28;20056;-77
2020/12/06 06:31:52;;;;;;;39.43;18.60;;;;;;;;;;5068207;28;20024;-77
2020/12/06 06:34:17;;;;;;;42.93;17.50;;;;;;;;;;5057028;28;20017;-77
2020/12/06 06:36:43;;;;;;;40.90;17.17;;;;;;;;;;5057925;28;20044;-77
2020/12/06 06:39:09;;;;;;;33.90;15.90;;;;;;;;;;5066893;28;20479;-77
2020/12/06 06:41:35;;;;;;;29.60;15.50;;;;;;;;;;5063929;28;20031;-77
2020/12/06 06:44:01;;;;;;;32.50;16.37;;;;;;;;;;5062459;28;20107;-77
2020/12/06 06:46:33;;;;;;;28.77;14.73;;;;;;;;;;5064323;28;20025;-77
2020/12/06 06:49:06;;;;;;;26.10;14.52;;;;;;;;;;5066912;28;20102;-77
2020/12/06 06:51:31;;;;;;;27.07;13.53;;;;;;;;;;5055992;28;20090;-78
2020/12/06 06:54:03;;;;;;;30.97;15.47;;;;;;;;;;5059499;28;20452;-77
2020/12/06 06:56:28;;;;;;;30.60;14.53;;;;;;;;;;5060208;28;20491;-78
2020/12/06 06:58:53;;;;;;;26.23;14.07;;;;;;;;;;5068859;28;20296;-77
2020/12/06 07:01:20;;;;;;;29.13;15.13;;;;;;;;;;5062652;28;20070;-77
2020/12/06 07:03:49;;;;;;;27.20;14.23;;;;;;;;;;5064916;28;20032;-77
2020/12/06 07:06:34;;;;;;;26.80;14.73;;;;;;;;;;5067826;28;20419;-77
2020/12/06 07:09:01;;;;;;;27.33;14.03;;;;;;;;;;5060305;28;20033;-77
2020/12/06 07:11:26;;;;;;;27.07;14.20;;;;;;;;;;5061249;28;20021;-77
2020/12/06 07:13:51;;;;;;;23.93;13.40;;;;;;;;;;5064046;28;20024;-77
2020/12/06 07:16:16;;;;;;;25.17;13.07;;;;;;;;;;5059728;28;20062;-77
2020/12/06 07:18:41;;;;;;;26.80;13.60;;;;;;;;;;5061110;28;20025;-78
2020/12/06 07:21:07;;;;;;;28.77;13.20;;;;;;;;;;5058721;28;20025;-78
2020/12/06 07:23:32;;;;;;;24.17;12.70;;;;;;;;;;5055792;28;20021;-77
2020/12/06 07:25:58;;;;;;;33.03;14.27;;;;;;;;;;5059748;28;20021;-77
2020/12/06 07:28:23;;;;;;;30.43;16.77;;;;;;;;;;5060956;28;20028;-77
2020/12/06 07:30:48;;;;;;;29.30;14.57;;;;;;;;;;5063667;28;20020;-77
2020/12/06 07:33:13;;;;;;;30.23;15.70;;;;;;;;;;5058530;28;20017;-77
2020/12/06 07:35:38;;;;;;;24.97;13.87;;;;;;;;;;5057191;28;20025;-77
2020/12/06 07:38:04;;;;;;;34.13;17.00;;;;;;;;;;5055413;28;20384;-78
2020/12/06 07:40:29;;;;;;;31.60;15.23;;;;;;;;;;5058537;28;20111;-77
2020/12/06 07:42:54;;;;;;;33.40;15.73;;;;;;;;;;5060771;28;20059;-77
2020/12/06 07:45:24;;;;;;;24.07;13.63;;;;;;;;;;5058064;28;20067;-78
2020/12/06 07:47:49;;;;;;;27.97;14.30;;;;;;;;;;5059051;28;20034;-78
2020/12/06 07:50:14;;;;;;;27.53;14.90;;;;;;;;;;5054844;28;20481;-77
2020/12/06 07:52:39;;;;;;;25.50;14.33;;;;;;;;;;5061457;28;20021;-77
2020/12/06 07:55:05;;;;;;;28.07;15.17;;;;;;;;;;5064414;28;20477;-77
2020/12/06 07:57:39;;;;;;;26.20;14.70;;;;;;;;;;5061839;28;20082;-77
2020/12/06 08:00:09;;;;;;;32.10;17.07;;;;;;;;;;5063542;28;20033;-77
2020/12/06 08:02:35;;;;;;;35.90;16.47;;;;;;;;;;5060153;28;20094;-77
2020/12/06 08:05:01;;;;;;;30.07;15.07;;;;;;;;;;5063677;28;20516;-77
2020/12/06 08:07:30;;;;;;;34.87;16.07;;;;;;;;;;5062797;28;20016;-77
2020/12/06 08:09:56;;;;;;;33.70;16.17;;;;;;;;;;5065746;28;20028;-77
2020/12/06 08:12:23;;;;;;;68.03;30.03;;;;;;;;;;5055298;28;20015;-77
2020/12/06 08:14:48;;;;;;;74.03;35.63;;;;;;;;;;5064027;28;20047;-77
2020/12/06 08:17:13;;;;;;;47.43;25.57;;;;;;;;;;5059670;28;20087;-77
2020/12/06 08:19:41;;;;;;;64.40;31.77;;;;;;;;;;5063294;28;20100;-77
2020/12/06 08:22:07;;;;;;;181.63;69.90;;;;;;;;;;5064652;28;20055;-77
2020/12/06 08:24:33;;;;;;;80.20;34.00;;;;;;;;;;5060210;28;20028;-77
2020/12/06 08:26:59;;;;;;;45.13;21.90;;;;;;;;;;5068543;28;20432;-76
2020/12/06 08:29:41;;;;;;;194.60;73.90;;;;;;;;;;5058231;28;20031;-77
2020/12/06 08:32:06;;;;;;;68.53;30.08;;;;;;;;;;5063108;28;20090;-77
2020/12/06 08:34:32;;;;;;;39.50;20.50;;;;;;;;;;5058413;28;20029;-77
2020/12/06 08:37:17;;;;;;;39.80;19.70;;;;;;;;;;5058094;28;20066;-77
2020/12/06 08:39:42;;;;;;;37.90;19.83;;;;;;;;;;5061088;28;20373;-77
2020/12/06 08:42:13;;;;;;;35.37;17.97;;;;;;;;;;5064088;28;20075;-77
2020/12/06 08:44:51;;;;;;;34.37;17.17;;;;;;;;;;5065005;28;20070;-77
2020/12/06 08:47:17;;;;;;;36.50;18.20;;;;;;;;;;5064796;28;20029;-77
2020/12/06 08:49:42;;;;;;;32.80;16.50;;;;;;;;;;5067874;28;20406;-77
2020/12/06 08:52:18;;;;;;;33.53;16.97;;;;;;;;;;5056609;28;20082;-77
2020/12/06 08:54:47;;;;;;;34.57;17.37;;;;;;;;;;5068877;28;20466;-77
2020/12/06 08:57:14;;;;;;;31.73;17.00;;;;;;;;;;5066910;28;20021;-77
2020/12/06 08:59:39;;;;;;;36.87;17.73;;;;;;;;;;5061180;28;20106;-77
2020/12/06 09:02:05;;;;;;;36.23;18.17;;;;;;;;;;5079784;28;20483;-77
2020/12/06 09:04:34;;;;;;;30.10;16.83;;;;;;;;;;5064347;28;20016;-77
2020/12/06 09:07:02;;;;;;;37.40;17.47;;;;;;;;;;5099114;27;20103;-77
2020/12/06 09:09:28;;;;;;;33.17;17.27;;;;;;;;;;5081524;28;20044;-77
2020/12/06 09:11:53;;;;;;;35.77;17.23;;;;;;;;;;5065090;28;20410;-77
2020/12/06 09:14:19;;;;;;;40.07;19.60;;;;;;;;;;5065963;28;20031;-77
2020/12/06 09:16:44;;;;;;;35.27;18.60;;;;;;;;;;5064278;28;20020;-77
2020/12/06 09:19:09;;;;;;;36.17;19.10;;;;;;;;;;5060952;28;20468;-77
2020/12/06 09:21:34;;;;;;;42.27;20.37;;;;;;;;;;5067133;28;20470;-78
2020/12/06 09:24:00;;;;;;;36.47;19.27;;;;;;;;;;5061754;28;20473;-77
2020/12/06 09:26:25;;;;;;;45.07;22.83;;;;;;;;;;5058248;28;20028;-77
2020/12/06 09:28:50;;;;;;;53.97;26.83;;;;;;;;;;5071669;28;20025;-77
2020/12/06 09:31:19;;;;;;;43.87;23.20;;;;;;;;;;5096990;27;20147;-77
2020/12/06 09:33:44;;;;;;;42.63;21.67;;;;;;;;;;5061983;28;20055;-77
2020/12/06 09:36:09;;;;;;;48.40;24.47;;;;;;;;;;5061470;28;20401;-77
2020/12/06 09:38:34;;;;;;;35.37;18.73;;;;;;;;;;5063542;28;20062;-77
2020/12/06 09:40:59;;;;;;;36.03;18.47;;;;;;;;;;5058379;28;20515;-77
2020/12/06 09:43:25;;;;;;;37.10;18.87;;;;;;;;;;5068859;28;20024;-77
2020/12/06 09:45:50;;;;;;;35.70;18.87;;;;;;;;;;5069159;28;20028;-77
2020/12/06 09:48:15;;;;;;;37.57;19.17;;;;;;;;;;5060477;28;20522;-77
2020/12/06 09:50:40;;;;;;;41.07;19.63;;;;;;;;;;5071289;28;20064;-77
2020/12/06 09:53:06;;;;;;;38.37;20.43;;;;;;;;;;5066752;28;20040;-77
2020/12/06 09:55:31;;;;;;;37.67;19.63;;;;;;;;;;5058537;28;20024;-77
2020/12/06 09:57:56;;;;;;;41.17;19.30;;;;;;;;;;5060508;28;20028;-77
2020/12/06 10:00:21;;;;;;;39.33;19.80;;;;;;;;;;5065478;28;20073;-77
2020/12/06 10:02:46;;;;;;;36.63;19.43;;;;;;;;;;5067239;28;20569;-77
2020/12/06 10:05:12;;;;;;;42.47;20.13;;;;;;;;;;5054668;28;20017;-77
2020/12/06 10:07:37;;;;;;;41.17;20.50;;;;;;;;;;5056249;28;20032;-77
2020/12/06 10:10:06;;;;;;;38.67;20.83;;;;;;;;;;5063081;28;20031;-78
2020/12/06 10:12:31;;;;;;;38.97;20.07;;;;;;;;;;5060521;28;20024;-77
2020/12/06 10:14:57;;;;;;;38.87;19.57;;;;;;;;;;5065526;28;20117;-77
2020/12/06 10:17:22;;;;;;;38.87;20.23;;;;;;;;;;5059641;28;20018;-77
2020/12/06 10:19:47;;;;;;;42.03;20.97;;;;;;;;;;5059189;28;20016;-77
2020/12/06 10:22:12;;;;;;;39.27;19.80;;;;;;;;;;5072260;28;20021;-77
2020/12/06 10:24:37;;;;;;;37.73;18.07;;;;;;;;;;5055879;28;20119;-77
2020/12/06 10:27:03;;;;;;;41.37;19.50;;;;;;;;;;5066922;28;20017;-77
2020/12/06 10:29:28;;;;;;;37.17;20.80;;;;;;;;;;5059791;28;20041;-77
2020/12/06 10:31:54;;;;;;;39.67;20.97;;;;;;;;;;5067439;28;20059;-77
2020/12/06 10:34:19;;;;;;;44.23;24.03;;;;;;;;;;5058403;28;20179;-77
2020/12/06 10:36:52;;;;;;;45.30;23.13;;;;;;;;;;5068683;28;20029;-77
2020/12/06 10:39:18;;;;;;;39.00;21.07;;;;;;;;;;5070118;28;20469;-77
2020/12/06 10:41:46;;;;;;;42.13;20.40;;;;;;;;;;5067502;28;20074;-77
2020/12/06 10:44:11;;;;;;;37.93;19.87;;;;;;;;;;5061572;28;20073;-77
2020/12/06 10:46:36;;;;;;;39.80;18.60;;;;;;;;;;5076152;28;20017;-77
2020/12/06 10:49:01;;;;;;;37.43;19.70;;;;;;;;;;5058386;28;20032;-77
2020/12/06 10:51:26;;;;;;;38.93;19.40;;;;;;;;;;5058823;28;20389;-77
2020/12/06 10:53:52;;;;;;;39.37;20.40;;;;;;;;;;5062062;28;20021;-77
2020/12/06 10:56:19;;;;;;;38.57;20.87;;;;;;;;;;5059339;28;20016;-76
2020/12/06 10:58:44;;;;;;;36.97;19.97;;;;;;;;;;5059351;28;20021;-77
2020/12/06 11:01:09;;;;;;;38.80;19.70;;;;;;;;;;5061698;28;20035;-77
2020/12/06 11:03:35;;;;;;;35.93;19.47;;;;;;;;;;5059792;28;20130;-76
2020/12/06 11:06:00;;;;;;;39.93;20.80;;;;;;;;;;5059835;28;20042;-77
2020/12/06 11:08:25;;;;;;;39.93;19.80;;;;;;;;;;5071937;28;20021;-77
2020/12/06 11:10:50;;;;;;;43.67;21.13;;;;;;;;;;5061442;28;20017;-77
2020/12/06 11:13:15;;;;;;;45.60;21.77;;;;;;;;;;5068405;28;20020;-77
2020/12/06 11:15:41;;;;;;;42.10;21.97;;;;;;;;;;5070292;28;20025;-77
2020/12/06 11:18:06;;;;;;;40.23;21.23;;;;;;;;;;5062170;28;20035;-76
2020/12/06 11:20:31;;;;;;;40.87;23.03;;;;;;;;;;5067823;28;20028;-77
2020/12/06 11:22:56;;;;;;;39.27;21.93;;;;;;;;;;5064092;28;20025;-76
2020/12/06 11:25:21;;;;;;;42.33;22.10;;;;;;;;;;5061713;28;20027;-76
2020/12/06 11:27:47;;;;;;;44.97;23.27;;;;;;;;;;5061551;28;20365;-76
2020/12/06 11:30:12;;;;;;;42.17;23.30;;;;;;;;;;5066091;28;20028;-76
2020/12/06 11:32:37;;;;;;;44.77;22.27;;;;;;;;;;5061513;28;20117;-76
2020/12/06 11:35:02;;;;;;;46.47;21.80;;;;;;;;;;5059995;28;20012;-77
2020/12/06 11:37:27;;;;;;;40.50;21.93;;;;;;;;;;5061897;28;20021;-77
2020/12/06 11:39:52;;;;;;;43.50;22.03;;;;;;;;;;5065960;28;20025;-76
2020/12/06 11:42:18;;;;;;;47.13;23.83;;;;;;;;;;5067212;28;20399;-76
2020/12/06 11:44:43;;;;;;;46.00;22.23;;;;;;;;;;5067710;28;20036;-77
2020/12/06 11:47:08;;;;;;;42.67;21.30;;;;;;;;;;5056299;28;20105;-77
2020/12/06 11:49:33;;;;;;;38.03;20.90;;;;;;;;;;5065291;28;20012;-77
2020/12/06 11:51:58;;;;;;;47.67;23.13;;;;;;;;;;5070762;28;20009;-77
2020/12/06 11:54:23;;;;;;;47.07;24.20;;;;;;;;;;5059041;28;20024;-77
2020/12/06 11:56:49;;;;;;;40.53;22.30;;;;;;;;;;5061043;28;20033;-77
2020/12/06 11:59:15;;;;;;;41.87;23.53;;;;;;;;;;5057485;28;20115;-77
2020/12/06 12:01:40;;;;;;;41.17;22.13;;;;;;;;;;5061945;28;20028;-77
2020/12/06 12:04:05;;;;;;;46.00;23.97;;;;;;;;;;5061017;28;20079;-76
2020/12/06 12:06:30;;;;;;;48.47;23.57;;;;;;;;;;5073934;28;20027;-77
2020/12/06 12:08:56;;;;;;;41.70;23.40;;;;;;;;;;5060273;28;20035;-77
2020/12/06 12:11:21;;;;;;;44.03;24.47;;;;;;;;;;5069004;28;20463;-77
2020/12/06 12:13:47;;;;;;;47.33;24.87;;;;;;;;;;5065172;28;20028;-77
2020/12/06 12:16:12;;;;;;;45.83;24.67;;;;;;;;;;5069427;28;20012;-77
2020/12/06 12:18:37;;;;;;;42.20;23.60;;;;;;;;;;5067868;28;20020;-77
2020/12/06 12:21:02;;;;;;;43.33;22.87;;;;;;;;;;5075262;28;20008;-77
2020/12/06 12:23:28;;;;;;;45.73;23.77;;;;;;;;;;5062969;28;20017;-77
2020/12/06 12:25:53;;;;;;;44.37;23.27;;;;;;;;;;5069564;28;20024;-77
2020/12/06 12:28:18;;;;;;;47.03;24.40;;;;;;;;;;5068066;28;20021;-77
2020/12/06 12:30:43;;;;;;;46.80;24.83;;;;;;;;;;5062364;28;20422;-77
2020/12/06 12:33:08;;;;;;;47.83;24.73;;;;;;;;;;5062761;28;20085;-77
2020/12/06 12:35:34;;;;;;;43.00;23.97;;;;;;;;;;5072145;28;20016;-77
2020/12/06 12:37:59;;;;;;;46.43;23.13;;;;;;;;;;5071303;28;20032;-77
2020/12/06 12:40:24;;;;;;;47.03;23.80;;;;;;;;;;5058830;28;20071;-77
2020/12/06 12:42:49;;;;;;;47.20;24.23;;;;;;;;;;5073611;28;20393;-76
2020/12/06 12:45:15;;;;;;;45.47;23.83;;;;;;;;;;5063180;28;20023;-76
2020/12/06 12:47:40;;;;;;;45.20;23.57;;;;;;;;;;5080211;28;20024;-76
2020/12/06 12:50:06;;;;;;;43.50;22.30;;;;;;;;;;5067580;28;20036;-76
2020/12/06 12:52:31;;;;;;;45.73;23.30;;;;;;;;;;5071092;28;20021;-76
2020/12/06 12:54:56;;;;;;;44.77;23.47;;;;;;;;;;5070044;28;20471;-76
2020/12/06 12:57:21;;;;;;;51.77;25.80;;;;;;;;;;5058452;28;20025;-76
2020/12/06 12:59:46;;;;;;;47.43;24.40;;;;;;;;;;5070033;28;20480;-76
2020/12/06 13:02:12;;;;;;;45.00;23.27;;;;;;;;;;5066947;28;20023;-76
2020/12/06 13:04:37;;;;;;;44.87;22.30;;;;;;;;;;5071661;28;20460;-75
2020/12/06 13:07:02;;;;;;;51.30;24.30;;;;;;;;;;5057190;28;20025;-76
2020/12/06 13:09:28;;;;;;;43.57;23.63;;;;;;;;;;5062408;28;20021;-76
2020/12/06 13:11:56;;;;;;;40.10;21.80;;;;;;;;;;5065193;28;20028;-75
2020/12/06 13:14:23;;;;;;;46.80;23.83;;;;;;;;;;5059932;28;20464;-76
2020/12/06 13:16:48;;;;;;;42.30;23.00;;;;;;;;;;5075049;28;20391;-76
2020/12/06 13:19:13;;;;;;;48.63;24.47;;;;;;;;;;5061411;28;20099;-76
2020/12/06 13:21:38;;;;;;;49.03;25.53;;;;;;;;;;5063397;28;20033;-76
2020/12/06 13:24:03;;;;;;;51.63;25.60;;;;;;;;;;5064787;28;20460;-76
2020/12/06 13:26:29;;;;;;;53.53;25.13;;;;;;;;;;5063429;28;20051;-76
2020/12/06 13:28:54;;;;;;;49.03;23.83;;;;;;;;;;5068935;28;20398;-76
2020/12/06 13:31:20;;;;;;;51.23;25.60;;;;;;;;;;5062859;28;20020;-76
2020/12/06 13:33:45;;;;;;;52.83;26.47;;;;;;;;;;5060115;28;20029;-76
2020/12/06 13:36:15;;;;;;;52.50;26.43;;;;;;;;;;5073932;28;20035;-76
2020/12/06 13:38:40;;;;;;;48.37;26.27;;;;;;;;;;5055737;28;20025;-76
2020/12/06 13:41:05;;;;;;;53.50;26.93;;;;;;;;;;5065073;28;20499;-76
2020/12/06 13:43:30;;;;;;;46.93;26.07;;;;;;;;;;5065768;28;20017;-75
2020/12/06 13:45:55;;;;;;;52.57;25.10;;;;;;;;;;5075172;28;20082;-76
2020/12/06 13:48:20;;;;;;;47.67;25.43;;;;;;;;;;5077239;28;20021;-75
2020/12/06 13:50:46;;;;;;;49.87;25.73;;;;;;;;;;5059803;28;20082;-76
2020/12/06 13:53:11;;;;;;;47.77;24.87;;;;;;;;;;5071819;28;20017;-76
2020/12/06 13:55:36;;;;;;;48.83;26.53;;;;;;;;;;5056757;28;20029;-76
2020/12/06 13:58:02;;;;;;;52.70;29.23;;;;;;;;;;5064386;28;20024;-76
2020/12/06 14:00:27;;;;;;;54.90;29.10;;;;;;;;;;5056219;28;20052;-76
2020/12/06 14:02:52;;;;;;;51.93;27.27;;;;;;;;;;5062206;28;20515;-76
2020/12/06 14:05:17;;;;;;;52.57;26.77;;;;;;;;;;5075797;28;20016;-76
2020/12/06 14:07:46;;;;;;;54.47;28.40;;;;;;;;;;5058527;28;20426;-76